createdAt,value
2019-01-31T00:02:27.138Z,98146.21
2019-01-31T00:05:21.596Z,98144.48
2019-01-31T00:08:45.594Z,98140.19
2019-01-31T00:12:02.538Z,98136.28
2019-01-31T00:14:53.506Z,98142.63
2019-01-31T00:17:55.861Z,98144.70
2019-01-31T00:20:50.748Z,98146.48
2019-01-31T00:24:11.188Z,98150.81
2019-01-31T00:27:18.804Z,98160.59
2019-01-31T00:30:06.202Z,98158.78
2019-01-31T00:33:03.592Z,98162.97
2019-01-31T00:36:10.601Z,98158.04
2019-01-31T00:39:25.262Z,98151.48
2019-01-31T00:42:19.913Z,98150.39
2019-01-31T00:45:12.470Z,98154.37
2019-01-31T00:48:09.218Z,98159.02
2019-01-31T00:51:01.645Z,98158.08
2019-01-31T00:53:46.067Z,98157.72
2019-01-31T00:56:43.461Z,98163.83
2019-01-31T01:00:00.740Z,98151.46
2019-01-31T01:03:18.784Z,98151.42
2019-01-31T01:06:15.824Z,98143.24
2019-01-31T01:09:39.934Z,98152.83
2019-01-31T01:12:53.842Z,98156.02
2019-01-31T01:15:54.775Z,98152.55
2019-01-31T01:18:59.568Z,98155.57
2019-01-31T01:21:57.334Z,98161.55
2019-01-31T01:25:14.791Z,98166.44
2019-01-31T01:28:33.615Z,98163.28
2019-01-31T01:31:29.402Z,98175.23
2019-01-31T01:34:24.532Z,98174.18
2019-01-31T01:37:26.636Z,98167.86
2019-01-31T01:40:43.787Z,98173.16
2019-01-31T01:43:26.848Z,98175.89
2019-01-31T01:46:40.229Z,98179.83
2019-01-31T01:49:41.290Z,98187.09
2019-01-31T01:52:27.006Z,98186.52
2019-01-31T01:55:18.198Z,98188.66
2019-01-31T01:58:25.952Z,98190.50
2019-01-31T02:01:37.639Z,98187.17
2019-01-31T02:04:13.764Z,98181.69
2019-01-31T02:07:34.057Z,98168.08
2019-01-31T02:10:56.482Z,98166.78
2019-01-31T02:14:06.598Z,98177.17
2019-01-31T02:17:02.964Z,98172.19
2019-01-31T02:20:10.315Z,98172.34
2019-01-31T02:23:12.144Z,98173.25
2019-01-31T02:26:15.920Z,98171.87
2019-01-31T02:29:30.676Z,98170.57
2019-01-31T02:32:15.741Z,98173.38
2019-01-31T02:35:23.076Z,98172.23
2019-01-31T02:38:49.677Z,98179.02
2019-01-31T02:41:51.047Z,98190.98
2019-01-31T02:44:56.355Z,98195.24
2019-01-31T02:48:08.705Z,98185.56
2019-01-31T02:50:58.469Z,98182.96
2019-01-31T02:54:23.531Z,98183.33
2019-01-31T02:57:23.737Z,98176.28
2019-01-31T03:00:25.023Z,98169.85
2019-01-31T03:03:23.566Z,98183.33
2019-01-31T03:06:16.254Z,98185.73
2019-01-31T03:09:05.732Z,98187.55
2019-01-31T03:11:57.926Z,98183.06
2019-01-31T03:14:33.575Z,98180.92
2019-01-31T03:17:45.270Z,98178.69
2019-01-31T03:20:46.753Z,98193.69
2019-01-31T03:23:49.328Z,98197.27
2019-01-31T03:26:54.957Z,98200.45
2019-01-31T03:30:02.755Z,98203.99
2019-01-31T03:32:57.891Z,98202.44
2019-01-31T03:36:07.496Z,98204.56
2019-01-31T03:38:49.997Z,98202.73
2019-01-31T03:42:07.534Z,98211.66
2019-01-31T03:45:04.253Z,98217.86
2019-01-31T03:48:18.399Z,98215.80
2019-01-31T03:51:16.518Z,98213.96
2019-01-31T03:54:30.960Z,98209.41
2019-01-31T03:57:34.357Z,98211.47
2019-01-31T04:00:24.644Z,98201.64
2019-01-31T04:03:22.675Z,98199.80
2019-01-31T04:06:23.971Z,98191.80
2019-01-31T04:08:54.610Z,98198.67
2019-01-31T04:11:25.081Z,98197.63
2019-01-31T04:13:55.526Z,98191.05
2019-01-31T04:16:25.996Z,98195.10
2019-01-31T04:18:56.492Z,98197.73
2019-01-31T04:21:26.947Z,98198.27
2019-01-31T04:23:57.654Z,98202.66
2019-01-31T04:26:29.130Z,98198.75
2019-01-31T04:28:59.615Z,98209.55
2019-01-31T04:31:30.101Z,98210.86
2019-01-31T04:34:00.560Z,98214.34
2019-01-31T04:36:31.026Z,98212.83
2019-01-31T04:39:01.553Z,98216.05
2019-01-31T04:41:33.120Z,98213.34
2019-01-31T04:44:04.658Z,98216.64
2019-01-31T04:46:35.093Z,98221.70
2019-01-31T04:49:06.111Z,98215.41
2019-01-31T04:51:36.559Z,98208.35
2019-01-31T04:54:07.024Z,98216.89
2019-01-31T04:56:37.513Z,98213.56
2019-01-31T04:59:07.990Z,98213.34
2019-01-31T05:01:38.463Z,98206.62
2019-01-31T05:04:08.988Z,98204.64
2019-01-31T05:06:39.511Z,98212.98
2019-01-31T05:09:10.042Z,98211.56
2019-01-31T05:11:42.196Z,98207.45
2019-01-31T05:14:12.789Z,98209.39
2019-01-31T05:16:43.553Z,98206.03
2019-01-31T05:19:14.049Z,98198.34
2019-01-31T05:21:44.769Z,98202.83
2019-01-31T05:24:15.331Z,98210.86
2019-01-31T05:26:45.800Z,98208.83
2019-01-31T05:29:16.280Z,98208.94
2019-01-31T05:31:46.725Z,98205.47
2019-01-31T05:34:17.178Z,98204.34
2019-01-31T05:36:47.631Z,98199.94
2019-01-31T05:39:18.089Z,98207.20
2019-01-31T05:41:48.539Z,98215.41
2019-01-31T05:44:19.021Z,98221.11
2019-01-31T05:46:49.393Z,98230.30
2019-01-31T05:49:19.834Z,98240.27
2019-01-31T05:51:50.318Z,98243.48
2019-01-31T05:54:20.795Z,98250.45
2019-01-31T05:56:51.236Z,98252.47
2019-01-31T05:59:21.613Z,98249.08
2019-01-31T06:01:52.055Z,98246.08
2019-01-31T06:04:22.736Z,98244.34
2019-01-31T06:06:53.206Z,98251.97
2019-01-31T06:09:23.702Z,98258.16
2019-01-31T06:11:54.456Z,98261.70
2019-01-31T06:14:24.899Z,98260.39
2019-01-31T06:16:55.353Z,98271.05
2019-01-31T06:19:25.783Z,98271.35
2019-01-31T06:21:56.273Z,98275.65
2019-01-31T06:24:26.773Z,98280.30
2019-01-31T06:26:57.243Z,98282.38
2019-01-31T06:29:27.689Z,98285.36
2019-01-31T06:31:58.154Z,98299.39
2019-01-31T06:34:28.671Z,98306.39
2019-01-31T06:36:59.137Z,98313.05
2019-01-31T06:39:29.649Z,98312.91
2019-01-31T06:42:00.166Z,98315.05
2019-01-31T06:44:30.684Z,98302.89
2019-01-31T06:47:01.185Z,98300.00
2019-01-31T06:49:31.676Z,98304.78
2019-01-31T06:52:02.138Z,98313.08
2019-01-31T06:54:32.600Z,98315.16
2019-01-31T06:57:03.140Z,98317.76
2019-01-31T06:59:33.619Z,98312.53
2019-01-31T07:02:04.188Z,98313.05
2019-01-31T07:04:34.662Z,98315.59
2019-01-31T07:07:05.157Z,98309.56
2019-01-31T07:09:35.648Z,98311.90
2019-01-31T07:12:06.320Z,98314.02
2019-01-31T07:14:36.798Z,98328.47
2019-01-31T07:17:07.281Z,98325.28
2019-01-31T07:19:37.759Z,98325.58
2019-01-31T07:22:08.278Z,98316.27
2019-01-31T07:24:38.752Z,98322.23
2019-01-31T07:27:09.252Z,98321.25
2019-01-31T07:29:39.748Z,98321.45
2019-01-31T07:32:10.301Z,98320.41
2019-01-31T07:34:41.017Z,98314.69
2019-01-31T07:37:11.474Z,98308.14
2019-01-31T07:39:41.987Z,98312.18
2019-01-31T07:42:12.484Z,98306.64
2019-01-31T07:44:42.979Z,98306.63
2019-01-31T07:47:14.083Z,98313.09
2019-01-31T07:49:44.577Z,98312.67
2019-01-31T07:52:15.055Z,98310.69
2019-01-31T07:54:45.554Z,98314.23
2019-01-31T07:57:16.654Z,98307.69
2019-01-31T07:59:47.161Z,98314.58
2019-01-31T08:02:18.262Z,98315.89
2019-01-31T08:04:49.303Z,98307.34
2019-01-31T08:07:20.392Z,98304.34
2019-01-31T08:09:51.483Z,98312.94
2019-01-31T08:12:21.941Z,98325.39
2019-01-31T08:14:53.003Z,98325.16
2019-01-31T08:17:24.074Z,98329.54
2019-01-31T08:19:55.130Z,98320.37
2019-01-31T08:22:26.196Z,98324.23
2019-01-31T08:24:57.348Z,98324.63
2019-01-31T08:27:28.456Z,98333.06
2019-01-31T08:29:59.547Z,98334.98
2019-01-31T08:32:30.013Z,98327.15
2019-01-31T08:35:01.204Z,98334.66
2019-01-31T08:37:32.297Z,98334.72
2019-01-31T08:40:03.500Z,98328.24
2019-01-31T08:42:34.002Z,98334.84
2019-01-31T08:45:05.172Z,98338.19
2019-01-31T08:47:36.223Z,98335.47
2019-01-31T08:50:08.583Z,98330.87
2019-01-31T08:52:41.653Z,98330.29
2019-01-31T08:55:12.382Z,98324.20
2019-01-31T08:57:43.449Z,98324.27
2019-01-31T09:00:21.015Z,98326.94
2019-01-31T09:02:52.052Z,98324.14
2019-01-31T09:05:23.121Z,98328.38
2019-01-31T09:07:54.172Z,98331.52
2019-01-31T09:10:30.522Z,98329.77
2019-01-31T09:13:04.555Z,98329.80
2019-01-31T09:15:35.630Z,98335.27
2019-01-31T09:18:07.342Z,98335.37
2019-01-31T09:20:45.110Z,98336.77
2019-01-31T09:23:24.093Z,98342.48
2019-01-31T09:26:37.803Z,98336.16
2019-01-31T09:29:26.874Z,98338.30
2019-01-31T09:32:32.416Z,98332.06
2019-01-31T09:35:41.688Z,98338.92
2019-01-31T09:38:52.499Z,98338.95
2019-01-31T09:41:42.147Z,98346.21
2019-01-31T09:45:15.316Z,98346.91
2019-01-31T09:48:37.434Z,98334.00
2019-01-31T09:51:20.418Z,98325.01
2019-01-31T09:54:22.370Z,98326.28
2019-01-31T09:57:11.351Z,98318.92
2019-01-31T10:00:33.092Z,98313.09
2019-01-31T10:03:13.404Z,98308.48
2019-01-31T10:06:12.681Z,98296.08
2019-01-31T10:09:36.561Z,98296.28
2019-01-31T10:12:57.547Z,98301.44
2019-01-31T10:16:09.815Z,98283.45
2019-01-31T10:19:36.994Z,98284.80
2019-01-31T10:22:43.988Z,98286.11
2019-01-31T10:25:49.434Z,98287.93
2019-01-31T10:29:06.813Z,98289.64
2019-01-31T10:32:31.220Z,98291.28
2019-01-31T10:36:01.306Z,98289.80
2019-01-31T10:38:49.027Z,98284.97
2019-01-31T10:41:56.708Z,98274.50
2019-01-31T10:45:03.726Z,98272.81
2019-01-31T10:48:12.472Z,98274.67
2019-01-31T10:51:32.280Z,98282.28
2019-01-31T10:54:35.491Z,98276.05
2019-01-31T10:57:38.521Z,98267.62
2019-01-31T11:00:45.420Z,98267.92
2019-01-31T11:03:58.672Z,98278.20
2019-01-31T11:06:57.335Z,98274.38
2019-01-31T11:10:14.168Z,98261.53
2019-01-31T11:13:40.204Z,98254.17
2019-01-31T11:17:07.320Z,98252.39
2019-01-31T11:20:15.389Z,98246.27
2019-01-31T11:23:22.968Z,98245.46
2019-01-31T11:26:47.529Z,98246.92
2019-01-31T11:29:43.403Z,98242.61
2019-01-31T11:32:52.955Z,98245.80
2019-01-31T11:36:15.596Z,98251.03
2019-01-31T11:39:21.564Z,98250.56
2019-01-31T11:42:31.827Z,98249.44
2019-01-31T11:45:43.789Z,98250.73
2019-01-31T11:48:48.229Z,98248.91
2019-01-31T11:51:53.025Z,98250.09
2019-01-31T11:54:55.155Z,98235.13
2019-01-31T11:58:02.245Z,98242.98
2019-01-31T12:00:33.947Z,98243.45
2019-01-31T12:03:05.060Z,98239.67
2019-01-31T12:05:36.723Z,98234.80
2019-01-31T12:08:07.837Z,98233.88
2019-01-31T12:10:38.901Z,98221.53
2019-01-31T12:13:09.871Z,98221.78
2019-01-31T12:15:40.954Z,98218.57
2019-01-31T12:18:12.082Z,98214.28
2019-01-31T12:20:43.155Z,98218.13
2019-01-31T12:23:14.289Z,98224.47
2019-01-31T12:25:45.313Z,98218.53
2019-01-31T12:28:16.340Z,98219.14
2019-01-31T12:30:47.381Z,98221.12
2019-01-31T12:33:18.483Z,98221.67
2019-01-31T12:35:49.518Z,98219.48
2019-01-31T12:38:20.803Z,98219.19
2019-01-31T12:40:51.843Z,98205.09
2019-01-31T12:43:34.303Z,98207.59
2019-01-31T12:45:55.652Z,98200.56
2019-01-31T12:48:26.808Z,98207.91
2019-01-31T12:50:57.840Z,98212.77
2019-01-31T12:53:28.830Z,98211.70
2019-01-31T12:55:59.933Z,98207.45
2019-01-31T12:58:33.606Z,98205.32
2019-01-31T13:01:05.161Z,98200.89
2019-01-31T13:03:36.260Z,98194.59
2019-01-31T13:06:07.304Z,98195.58
2019-01-31T13:08:38.349Z,98194.70
2019-01-31T13:11:09.393Z,98197.61
2019-01-31T13:13:46.099Z,98197.20
2019-01-31T13:16:13.199Z,98200.33
2019-01-31T13:18:44.261Z,98198.25
2019-01-31T13:21:15.308Z,98197.33
2019-01-31T13:23:46.368Z,98200.17
2019-01-31T13:26:17.336Z,98198.06
2019-01-31T13:28:48.393Z,98198.77
2019-01-31T13:31:19.450Z,98203.27
2019-01-31T13:33:50.505Z,98205.79
2019-01-31T13:36:22.836Z,98218.08
2019-01-31T13:38:53.899Z,98221.39
2019-01-31T13:41:24.972Z,98223.14
2019-01-31T13:43:57.727Z,98216.66
2019-01-31T13:46:28.795Z,98219.76
2019-01-31T13:48:59.863Z,98217.06
2019-01-31T13:51:30.927Z,98218.69
2019-01-31T13:54:01.980Z,98218.77
2019-01-31T13:56:44.919Z,98212.59
2019-01-31T13:59:05.999Z,98211.84
2019-01-31T14:01:37.052Z,98209.36
2019-01-31T14:04:08.089Z,98213.06
2019-01-31T14:06:39.137Z,98213.95
2019-01-31T14:09:10.520Z,98207.70
2019-01-31T14:11:41.573Z,98213.20
2019-01-31T14:14:12.639Z,98211.50
2019-01-31T14:16:47.799Z,98211.67
2019-01-31T14:19:16.427Z,98215.20
2019-01-31T14:21:47.628Z,98217.67
2019-01-31T14:24:18.756Z,98216.09
2019-01-31T14:26:49.803Z,98217.33
2019-01-31T14:29:21.913Z,98218.70
2019-01-31T14:31:52.962Z,98219.88
2019-01-31T14:34:23.978Z,98217.05
2019-01-31T14:36:55.023Z,98214.44
2019-01-31T14:39:26.114Z,98216.09
2019-01-31T14:41:57.156Z,98214.44
2019-01-31T14:44:28.213Z,98216.84
2019-01-31T14:46:59.280Z,98214.98
2019-01-31T14:49:30.289Z,98215.94
2019-01-31T14:52:01.329Z,98221.39
2019-01-31T14:54:32.388Z,98224.36
2019-01-31T14:57:04.449Z,98228.58
2019-01-31T14:59:35.522Z,98225.41
2019-01-31T15:02:06.673Z,98229.33
2019-01-31T15:04:37.721Z,98226.05
2019-01-31T15:07:08.786Z,98222.22
2019-01-31T15:09:39.867Z,98220.39
2019-01-31T15:12:10.907Z,98223.36
2019-01-31T15:14:42.007Z,98222.27
2019-01-31T15:17:13.086Z,98225.53
2019-01-31T15:19:44.224Z,98222.12
2019-01-31T15:22:15.217Z,98228.97
2019-01-31T15:24:46.517Z,98227.57
2019-01-31T15:27:17.634Z,98224.83
2019-01-31T15:29:48.674Z,98225.09
2019-01-31T15:32:20.073Z,98223.79
2019-01-31T15:34:51.150Z,98224.53
2019-01-31T15:37:22.222Z,98221.03
2019-01-31T15:39:53.262Z,98229.88
2019-01-31T15:42:24.356Z,98236.29
2019-01-31T15:44:55.405Z,98237.50
2019-01-31T15:47:26.454Z,98235.11
2019-01-31T15:49:57.552Z,98232.31
2019-01-31T15:52:28.641Z,98240.22
2019-01-31T15:54:59.730Z,98244.05
2019-01-31T15:57:30.895Z,98245.48
2019-01-31T16:00:01.969Z,98240.67
2019-01-31T16:02:33.070Z,98249.13
2019-01-31T16:05:04.153Z,98238.65
2019-01-31T16:07:35.247Z,98245.80
2019-01-31T16:10:06.337Z,98250.67
2019-01-31T16:12:37.399Z,98253.38
2019-01-31T16:15:09.569Z,98251.71
2019-01-31T16:17:40.673Z,98256.28
2019-01-31T16:20:12.983Z,98248.45
2019-01-31T16:22:44.107Z,98260.59
2019-01-31T16:25:16.454Z,98261.63
2019-01-31T16:27:47.505Z,98267.62
2019-01-31T16:30:21.101Z,98266.41
2019-01-31T16:32:52.203Z,98267.23
2019-01-31T16:35:24.310Z,98262.34
2019-01-31T16:37:55.519Z,98263.44
2019-01-31T16:40:26.640Z,98282.69
2019-01-31T16:42:57.700Z,98281.20
2019-01-31T16:45:28.799Z,98285.41
2019-01-31T16:47:59.880Z,98286.65
2019-01-31T16:50:30.957Z,98293.17
2019-01-31T16:53:02.070Z,98292.62
2019-01-31T16:55:33.115Z,98292.89
2019-01-31T16:58:04.306Z,98297.36
2019-01-31T17:00:35.457Z,98297.00
2019-01-31T17:03:07.318Z,98307.16
2019-01-31T17:05:38.398Z,98308.62
2019-01-31T17:08:10.474Z,98315.89
2019-01-31T17:10:43.280Z,98323.52
2019-01-31T17:13:14.379Z,98331.36
2019-01-31T17:15:45.469Z,98332.51
2019-01-31T17:18:16.585Z,98342.00
2019-01-31T17:20:47.737Z,98338.83
2019-01-31T17:23:18.884Z,98340.30
2019-01-31T17:25:49.988Z,98343.30
2019-01-31T17:28:21.072Z,98340.69
2019-01-31T17:30:51.554Z,98344.28
2019-01-31T17:33:22.783Z,98343.25
2019-01-31T17:35:53.885Z,98346.63
2019-01-31T17:38:25.997Z,98347.77
2019-01-31T17:40:57.117Z,98351.12
2019-01-31T17:43:29.728Z,98356.70
2019-01-31T17:46:01.146Z,98351.12
2019-01-31T17:48:35.316Z,98356.80
2019-01-31T17:51:05.296Z,98356.91
2019-01-31T17:53:36.433Z,98359.61
2019-01-31T17:56:07.545Z,98358.42
2019-01-31T17:58:38.113Z,98369.15
2019-01-31T18:01:09.178Z,98372.44
2019-01-31T18:03:40.315Z,98374.58
2019-01-31T18:06:11.389Z,98376.17
2019-01-31T18:08:42.506Z,98378.50
2019-01-31T18:11:13.684Z,98386.25
2019-01-31T18:13:44.900Z,98387.20
2019-01-31T18:16:17.506Z,98392.98
2019-01-31T18:18:49.091Z,98405.11
2019-01-31T18:21:20.165Z,98401.00
2019-01-31T18:23:51.298Z,98418.52
2019-01-31T18:26:22.427Z,98417.77
2019-01-31T18:28:52.956Z,98423.46
2019-01-31T18:31:24.449Z,98430.73
2019-01-31T18:33:57.085Z,98430.30
2019-01-31T18:36:27.605Z,98432.50
2019-01-31T18:38:58.733Z,98440.34
2019-01-31T18:41:29.198Z,98444.61
2019-01-31T18:43:59.728Z,98447.41
2019-01-31T18:46:30.239Z,98452.81
2019-01-31T18:49:00.828Z,98454.20
2019-01-31T18:51:31.322Z,98457.57
2019-01-31T18:54:01.821Z,98466.52
2019-01-31T18:56:32.311Z,98464.81
2019-01-31T18:59:03.399Z,98475.44
2019-01-31T19:01:33.994Z,98481.67
2019-01-31T19:04:05.068Z,98484.57
2019-01-31T19:06:36.224Z,98490.98
2019-01-31T19:09:06.731Z,98497.42
2019-01-31T19:11:37.259Z,98498.26
2019-01-31T19:14:07.754Z,98509.16
2019-01-31T19:16:38.842Z,98513.25
2019-01-31T19:19:09.928Z,98506.45
2019-01-31T19:21:40.436Z,98518.11
2019-01-31T19:24:10.920Z,98519.88
2019-01-31T19:26:42.002Z,98524.08
2019-01-31T19:29:12.780Z,98530.89
2019-01-31T19:31:43.942Z,98530.89
2019-01-31T19:34:15.235Z,98534.98
2019-01-31T19:36:45.822Z,98546.43
2019-01-31T19:39:18.920Z,98548.20
2019-01-31T19:41:49.454Z,98552.66
2019-01-31T19:44:19.927Z,98566.14
2019-01-31T19:46:50.418Z,98573.53
2019-01-31T19:49:21.012Z,98577.05
2019-01-31T19:51:51.578Z,98585.98
2019-01-31T19:54:24.160Z,98590.52
2019-01-31T19:56:54.652Z,98592.41
2019-01-31T19:59:25.951Z,98604.61
2019-01-31T20:01:56.437Z,98611.20
2019-01-31T20:04:27.098Z,98610.37
2019-01-31T20:06:57.561Z,98614.38
2019-01-31T20:09:29.228Z,98617.14
2019-01-31T20:11:59.734Z,98622.64
2019-01-31T20:14:30.214Z,98629.73
2019-01-31T20:17:01.358Z,98627.13
2019-01-31T20:19:32.886Z,98635.31
2019-01-31T20:22:03.744Z,98633.00
2019-01-31T20:24:34.208Z,98640.90
2019-01-31T20:27:04.674Z,98642.38
2019-01-31T20:29:35.153Z,98645.20
2019-01-31T20:32:06.136Z,98649.02
2019-01-31T20:34:37.984Z,98657.53
2019-01-31T20:37:10.121Z,98662.03
2019-01-31T20:39:40.641Z,98659.71
2019-01-31T20:42:11.707Z,98665.05
2019-01-31T20:44:42.779Z,98663.20
2019-01-31T20:47:15.868Z,98667.37
2019-01-31T20:49:46.599Z,98669.73
2019-01-31T20:52:17.653Z,98672.92
2019-01-31T20:54:48.112Z,98674.23
2019-01-31T20:57:18.540Z,98679.27
2019-01-31T20:59:49.114Z,98675.70
2019-01-31T21:02:21.887Z,98681.45
2019-01-31T21:04:52.459Z,98682.89
2019-01-31T21:07:23.020Z,98681.37
2019-01-31T21:09:53.543Z,98687.72
2019-01-31T21:12:24.286Z,98686.17
2019-01-31T21:14:54.738Z,98683.02
2019-01-31T21:17:25.517Z,98690.73
2019-01-31T21:19:55.971Z,98688.06
2019-01-31T21:22:26.561Z,98694.22
2019-01-31T21:24:56.996Z,98697.31
2019-01-31T21:28:18.931Z,98699.86
2019-01-31T21:30:45.205Z,98704.49
2019-01-31T21:33:11.278Z,98705.97
2019-01-31T21:35:37.551Z,98698.72
2019-01-31T21:38:03.839Z,98706.14
2019-01-31T21:40:33.872Z,98698.49
2019-01-31T21:43:00.153Z,98705.97
2019-01-31T21:45:26.326Z,98706.91
2019-01-31T21:47:52.625Z,98717.34
2019-01-31T21:50:21.812Z,98716.33
2019-01-31T21:52:48.099Z,98720.61
2019-01-31T21:55:14.593Z,98727.23
2019-01-31T21:57:40.667Z,98731.51
2019-01-31T22:00:32.955Z,98742.90
2019-01-31T22:02:59.251Z,98743.34
2019-01-31T22:05:25.519Z,98751.00
2019-01-31T22:07:51.701Z,98755.84
2019-01-31T22:10:18.728Z,98764.44
2019-01-31T22:12:44.971Z,98761.13
2019-01-31T22:15:20.351Z,98765.87
2019-01-31T22:17:46.530Z,98768.31
2019-01-31T22:20:12.778Z,98769.08
2019-01-31T22:22:39.013Z,98774.46
2019-01-31T22:25:08.598Z,98781.69
2019-01-31T22:27:34.766Z,98788.91
2019-01-31T22:30:01.271Z,98790.78
2019-01-31T22:32:27.541Z,98792.24
2019-01-31T22:34:53.828Z,98795.34
2019-01-31T22:37:19.992Z,98795.88
2019-01-31T22:39:46.175Z,98804.67
2019-01-31T22:42:12.343Z,98807.67
2019-01-31T22:44:38.608Z,98815.33
2019-01-31T22:47:04.760Z,98820.17
2019-01-31T22:49:31.035Z,98817.41
2019-01-31T22:51:57.232Z,98820.55
2019-01-31T22:54:23.479Z,98827.91
2019-01-31T22:56:49.622Z,98828.02
2019-01-31T22:59:15.718Z,98833.60
2019-01-31T23:04:33.516Z,98835.71
2019-01-31T23:06:59.566Z,98839.30
2019-01-31T23:09:25.633Z,98841.03
2019-01-31T23:11:51.797Z,98842.23
2019-01-31T23:14:17.970Z,98845.30
2019-01-31T23:16:44.219Z,98847.75
2019-01-31T23:19:10.372Z,98846.50
2019-01-31T23:21:36.444Z,98851.71
2019-01-31T23:24:02.931Z,98853.25
2019-01-31T23:26:28.980Z,98855.55
2019-01-31T23:28:55.165Z,98857.89
2019-01-31T23:31:21.310Z,98868.48
2019-01-31T23:33:47.379Z,98866.89
2019-01-31T23:36:13.559Z,98865.70
2019-01-31T23:38:39.505Z,98869.11
2019-01-31T23:41:05.565Z,98868.38
2019-01-31T23:43:31.516Z,98875.43
2019-01-31T23:45:57.684Z,98875.48
2019-01-31T23:48:23.765Z,98878.23
2019-01-31T23:50:49.814Z,98882.13
2019-01-31T23:53:15.987Z,98888.22
2019-01-31T23:55:42.292Z,98893.63
2019-01-31T23:58:08.438Z,98896.09
